createdAt,value
2018-09-08T00:01:18.947Z,14.67
2018-09-08T00:03:57.223Z,14.67
2018-09-08T00:06:31.456Z,14.70
2018-09-08T00:09:07.772Z,14.72
2018-09-08T00:11:39.087Z,14.70
2018-09-08T00:14:16.086Z,14.70
2018-09-08T00:16:53.412Z,14.70
2018-09-08T00:19:30.744Z,14.71
2018-09-08T00:22:27.630Z,14.71
2018-09-08T00:25:07.337Z,14.71
2018-09-08T00:27:45.716Z,14.71
2018-09-08T00:30:22.234Z,14.74
2018-09-08T00:32:56.227Z,14.75
2018-09-08T00:35:32.654Z,14.73
2018-09-08T00:38:06.372Z,14.73
2018-09-08T00:40:36.225Z,14.77
2018-09-08T00:43:07.601Z,14.75
2018-09-08T00:45:56.058Z,14.77
2018-09-08T00:48:28.106Z,14.75
2018-09-08T00:51:00.499Z,14.75
2018-09-08T00:53:41.774Z,14.77
2018-09-08T00:56:11.121Z,14.75
2018-09-08T01:01:32.112Z,14.69
2018-09-08T01:04:37.751Z,14.63
2018-09-08T01:07:17.208Z,14.54
2018-09-08T01:09:58.128Z,14.44
2018-09-08T01:12:39.368Z,14.35
2018-09-08T01:15:12.164Z,14.27
2018-09-08T01:17:43.447Z,14.22
2018-09-08T01:20:13.440Z,14.10
2018-09-08T01:22:45.448Z,14.01
2018-09-08T01:25:18.821Z,13.96
2018-09-08T01:27:50.796Z,13.87
2018-09-08T01:30:26.019Z,13.85
2018-09-08T01:32:57.300Z,13.82
2018-09-08T01:35:27.134Z,13.80
2018-09-08T01:38:04.454Z,13.77
2018-09-08T01:40:35.588Z,13.80
2018-09-08T01:43:10.285Z,13.70
2018-09-08T01:45:40.392Z,13.59
2018-09-08T01:48:12.096Z,13.55
2018-09-08T01:50:41.671Z,13.49
2018-09-08T01:53:15.597Z,13.50
2018-09-08T01:55:50.576Z,13.54
2018-09-08T01:58:23.959Z,13.56
2018-09-08T02:00:55.288Z,13.61
2018-09-08T02:03:30.890Z,13.64
2018-09-08T02:06:01.641Z,13.68
2018-09-08T02:08:48.304Z,13.71
2018-09-08T02:11:23.106Z,13.71
2018-09-08T02:13:54.658Z,13.70
2018-09-08T02:16:26.662Z,13.65
2018-09-08T02:18:59.176Z,13.67
2018-09-08T02:21:29.284Z,13.62
2018-09-08T02:24:01.445Z,13.65
2018-09-08T02:26:33.885Z,13.63
2018-09-08T02:29:12.915Z,13.60
2018-09-08T02:31:44.124Z,13.60
2018-09-08T02:34:15.921Z,13.61
2018-09-08T02:36:46.954Z,13.65
2018-09-08T02:39:25.436Z,13.64
2018-09-08T02:41:59.999Z,13.63
2018-09-08T02:44:30.960Z,13.63
2018-09-08T02:47:02.903Z,13.61
2018-09-08T02:50:42.125Z,13.64
2018-09-08T02:53:15.237Z,13.66
2018-09-08T02:55:47.393Z,13.68
2018-09-08T02:58:20.292Z,13.72
2018-09-08T03:00:51.115Z,13.70
2018-09-08T03:03:21.642Z,13.72
2018-09-08T03:05:49.639Z,13.77
2018-09-08T03:08:17.935Z,13.81
2018-09-08T03:10:46.326Z,13.82
2018-09-08T03:13:14.125Z,13.82
2018-09-08T03:15:42.492Z,13.81
2018-09-08T03:18:10.276Z,13.79
2018-09-08T03:20:38.060Z,13.79
2018-09-08T03:23:06.046Z,13.79
2018-09-08T03:25:36.127Z,13.82
2018-09-08T03:28:06.284Z,13.82
2018-09-08T03:30:36.327Z,13.80
2018-09-08T03:33:06.973Z,13.75
2018-09-08T03:35:34.954Z,13.75
2018-09-08T03:38:07.701Z,13.74
2018-09-08T03:40:37.022Z,13.77
2018-09-08T03:43:04.995Z,13.80
2018-09-08T03:45:34.908Z,13.83
2018-09-08T03:48:06.177Z,13.84
2018-09-08T03:50:40.772Z,13.82
2018-09-08T03:53:09.521Z,13.80
2018-09-08T03:55:38.109Z,13.80
2018-09-08T03:58:11.140Z,13.79
2018-09-08T04:00:43.849Z,13.80
2018-09-08T04:03:24.199Z,13.79
2018-09-08T04:06:00.553Z,13.75
2018-09-08T04:08:35.084Z,13.74
2018-09-08T04:11:21.343Z,13.70
2018-09-08T04:13:52.829Z,13.65
2018-09-08T04:16:27.892Z,13.63
2018-09-08T04:19:04.760Z,13.61
2018-09-08T04:21:35.889Z,13.59
2018-09-08T04:24:05.648Z,13.58
2018-09-08T04:26:36.576Z,13.52
2018-09-08T04:29:10.737Z,13.51
2018-09-08T04:31:44.215Z,13.46
2018-09-08T04:34:19.891Z,13.41
2018-09-08T04:36:49.249Z,13.33
2018-09-08T04:39:19.811Z,13.30
2018-09-08T04:41:49.223Z,13.26
2018-09-08T04:44:18.623Z,13.21
2018-09-08T04:46:48.044Z,13.18
2018-09-08T04:49:24.493Z,13.13
2018-09-08T04:52:04.249Z,13.06
2018-09-08T04:54:33.769Z,12.98
2018-09-08T04:57:08.945Z,12.92
2018-09-08T04:59:38.375Z,12.89
2018-09-08T05:02:08.002Z,12.86
2018-09-08T05:04:37.421Z,12.85
2018-09-08T05:07:06.874Z,12.88
2018-09-08T05:09:37.557Z,12.91
2018-09-08T05:12:07.023Z,12.93
2018-09-08T05:14:36.438Z,12.98
2018-09-08T05:17:06.445Z,12.99
2018-09-08T05:19:36.540Z,13.09
2018-09-08T05:22:06.289Z,13.18
2018-09-08T05:24:35.704Z,13.25
2018-09-08T05:27:05.110Z,13.28
2018-09-08T05:29:35.049Z,13.29
2018-09-08T05:32:04.441Z,13.31
2018-09-08T05:34:34.739Z,13.28
2018-09-08T05:40:07.432Z,13.31
2018-09-08T05:42:37.135Z,13.38
2018-09-08T05:45:06.994Z,13.42
2018-09-08T05:47:37.588Z,13.44
2018-09-08T05:50:07.822Z,13.48
2018-09-08T05:52:38.325Z,13.51
2018-09-08T05:55:08.327Z,13.52
2018-09-08T05:57:38.948Z,13.57
2018-09-08T06:00:09.231Z,13.59
2018-09-08T06:02:53.073Z,13.60
2018-09-08T06:05:23.451Z,13.69
2018-09-08T06:07:52.887Z,13.80
2018-09-08T06:10:23.020Z,13.89
2018-09-08T06:12:52.921Z,14.00
2018-09-08T06:15:22.651Z,14.06
2018-09-08T06:17:54.624Z,14.12
2018-09-08T06:20:24.253Z,14.21
2018-09-08T06:22:54.189Z,14.23
2018-09-08T06:25:23.594Z,14.29
2018-09-08T06:27:53.032Z,14.34
2018-09-08T06:30:22.727Z,14.35
2018-09-08T06:32:52.089Z,14.39
2018-09-08T06:35:23.222Z,14.44
2018-09-08T06:37:52.926Z,14.43
2018-09-08T06:40:23.301Z,14.50
2018-09-08T06:42:52.800Z,14.52
2018-09-08T06:45:23.075Z,14.55
2018-09-08T06:47:53.870Z,14.55
2018-09-08T06:50:23.235Z,14.63
2018-09-08T06:52:52.631Z,14.77
2018-09-08T06:55:29.348Z,14.90
2018-09-08T06:57:59.728Z,15.04
2018-09-08T07:03:13.072Z,14.95
2018-09-08T07:05:42.450Z,15.09
2018-09-08T07:08:11.903Z,15.22
2018-09-08T07:10:41.614Z,15.31
2018-09-08T07:13:11.897Z,15.55
2018-09-08T07:15:41.314Z,15.65
2018-09-08T07:18:10.769Z,15.71
2018-09-08T07:20:40.166Z,15.73
2018-09-08T07:23:09.880Z,15.78
2018-09-08T07:25:39.249Z,15.76
2018-09-08T07:28:09.257Z,15.71
2018-09-08T07:30:39.498Z,15.69
2018-09-08T07:33:09.265Z,15.73
2018-09-08T07:35:38.782Z,15.79
2018-09-08T07:38:09.093Z,15.81
2018-09-08T07:40:38.475Z,15.76
2018-09-08T07:43:09.132Z,15.90
2018-09-08T07:45:41.776Z,15.88
2018-09-08T07:48:12.555Z,16.04
2018-09-08T07:50:42.020Z,16.17
2018-09-08T07:53:12.674Z,16.18
2018-09-08T07:55:42.145Z,16.25
2018-09-08T07:58:13.046Z,16.28
2018-09-08T08:00:42.539Z,16.37
2018-09-08T08:03:11.889Z,16.36
2018-09-08T08:05:44.986Z,16.26
2018-09-08T08:08:15.172Z,16.20
2018-09-08T08:10:48.353Z,16.09
2018-09-08T08:13:18.065Z,16.03
2018-09-08T08:15:47.613Z,15.95
2018-09-08T08:18:17.933Z,15.90
2018-09-08T08:20:47.330Z,15.96
2018-09-08T08:23:17.225Z,16.09
2018-09-08T08:25:46.640Z,16.12
2018-09-08T08:28:15.985Z,15.97
2018-09-08T08:30:45.319Z,15.81
2018-09-08T08:33:14.877Z,15.77
2018-09-08T08:35:44.380Z,15.85
2018-09-08T08:38:14.284Z,16.01
2018-09-08T08:40:43.717Z,16.03
2018-09-08T08:43:13.141Z,16.08
2018-09-08T08:45:42.541Z,16.13
2018-09-08T08:48:12.500Z,16.17
2018-09-08T08:50:52.639Z,16.22
2018-09-08T08:53:33.620Z,16.29
2018-09-08T08:56:03.924Z,16.37
2018-09-08T08:58:34.496Z,16.44
2018-09-08T09:01:07.469Z,16.39
2018-09-08T09:03:37.357Z,16.36
2018-09-08T09:06:06.993Z,16.44
2018-09-08T09:08:37.492Z,16.29
2018-09-08T09:11:08.772Z,16.30
2018-09-08T09:13:39.925Z,16.29
2018-09-08T09:16:10.442Z,16.31
2018-09-08T09:18:51.245Z,16.36
2018-09-08T09:23:39.382Z,16.24
2018-09-08T09:26:08.737Z,16.31
2018-09-08T09:28:38.530Z,16.26
2018-09-08T09:31:08.694Z,16.37
2018-09-08T09:33:38.156Z,16.54
2018-09-08T09:36:07.713Z,16.49
2018-09-08T09:38:38.114Z,16.49
2018-09-08T09:41:07.980Z,16.49
2018-09-08T09:43:37.684Z,16.64
2018-09-08T09:46:07.697Z,16.74
2018-09-08T09:48:37.094Z,16.67
2018-09-08T09:51:08.733Z,16.66
2018-09-08T09:53:41.257Z,16.86
2018-09-08T09:56:16.412Z,16.89
2018-09-08T09:58:47.786Z,16.78
2018-09-08T10:01:27.282Z,16.90
2018-09-08T10:03:58.255Z,16.87
2018-09-08T10:06:30.819Z,16.97
2018-09-08T10:09:03.883Z,16.96
2018-09-08T10:11:53.130Z,17.01
2018-09-08T10:14:23.568Z,17.12
2018-09-08T10:16:53.956Z,17.21
2018-09-08T10:22:16.245Z,17.54
2018-09-08T10:24:45.595Z,17.42
2018-09-08T10:27:17.310Z,17.37
2018-09-08T10:29:53.005Z,17.44
2018-09-08T10:32:23.381Z,17.44
2018-09-08T10:35:00.312Z,17.42
2018-09-08T10:37:30.316Z,17.53
2018-09-08T10:40:00.252Z,17.64
2018-09-08T10:42:34.248Z,17.67
2018-09-08T10:45:04.556Z,17.87
2018-09-08T10:50:26.057Z,18.30
2018-09-08T10:52:55.652Z,18.22
2018-09-08T10:55:25.634Z,18.20
2018-09-08T10:58:03.651Z,18.14
2018-09-08T11:00:54.509Z,17.97
2018-09-08T11:03:28.433Z,17.77
2018-09-08T11:05:57.807Z,17.80
2018-09-08T11:08:58.320Z,17.90
2018-09-08T11:11:33.113Z,18.14
2018-09-08T11:14:04.270Z,18.17
2018-09-08T11:16:39.152Z,18.32
2018-09-08T11:19:13.715Z,18.23
2018-09-08T11:21:43.120Z,18.42
2018-09-08T11:24:16.364Z,18.46
2018-09-08T11:26:47.430Z,18.45
2018-09-08T11:29:19.656Z,18.48
2018-09-08T11:31:50.308Z,18.74
2018-09-08T11:34:21.395Z,18.89
2018-09-08T11:36:51.426Z,18.90
2018-09-08T11:39:23.009Z,19.03
2018-09-08T11:41:54.330Z,19.09
2018-09-08T11:44:24.315Z,19.14
2018-09-08T11:46:56.100Z,19.39
2018-09-08T11:49:30.987Z,19.33
2018-09-08T11:52:00.612Z,19.30
2018-09-08T11:54:32.616Z,19.16
2018-09-08T11:57:03.529Z,19.30
2018-09-08T11:59:34.936Z,19.42
2018-09-08T12:02:05.831Z,19.60
2018-09-08T12:04:37.112Z,19.59
2018-09-08T12:07:07.085Z,19.63
2018-09-08T12:09:37.263Z,19.46
2018-09-08T12:12:08.185Z,19.26
2018-09-08T12:14:38.049Z,19.16
2018-09-08T12:17:08.368Z,19.26
2018-09-08T12:19:38.826Z,19.34
2018-09-08T12:22:09.114Z,19.53
2018-09-08T12:24:42.764Z,19.48
2018-09-08T12:27:14.845Z,19.32
2018-09-08T12:29:44.186Z,19.20
2018-09-08T12:32:14.481Z,19.24
2018-09-08T12:34:44.081Z,19.25
2018-09-08T12:37:14.139Z,19.29
2018-09-08T12:39:43.497Z,19.36
2018-09-08T12:42:13.666Z,19.39
2018-09-08T12:44:43.012Z,19.41
2018-09-08T12:47:12.437Z,19.38
2018-09-08T12:49:43.008Z,19.36
2018-09-08T12:52:13.041Z,19.43
2018-09-08T12:54:42.672Z,19.54
2018-09-08T12:57:12.087Z,19.47
2018-09-08T12:59:41.971Z,19.44
2018-09-08T13:02:11.891Z,19.42
2018-09-08T13:04:42.440Z,19.45
2018-09-08T13:07:15.000Z,19.44
2018-09-08T13:09:44.357Z,19.35
2018-09-08T13:12:14.364Z,19.33
2018-09-08T13:14:45.227Z,19.35
2018-09-08T13:17:14.618Z,19.51
2018-09-08T13:19:47.320Z,19.53
2018-09-08T13:22:19.233Z,19.58
2018-09-08T13:24:53.639Z,19.69
2018-09-08T13:27:25.620Z,19.80
2018-09-08T13:29:55.457Z,19.85
2018-09-08T13:32:27.631Z,19.80
2018-09-08T13:34:57.424Z,19.79
2018-09-08T13:37:28.045Z,19.91
2018-09-08T13:39:59.269Z,20.06
2018-09-08T13:42:28.668Z,20.15
2018-09-08T13:44:59.210Z,19.85
2018-09-08T13:47:29.608Z,19.86
2018-09-08T13:49:59.193Z,19.99
2018-09-08T13:52:29.921Z,20.11
2018-09-08T13:58:08.473Z,20.45
2018-09-08T14:00:39.351Z,20.33
2018-09-08T14:03:12.333Z,20.34
2018-09-08T14:05:41.730Z,20.44
2018-09-08T14:08:16.625Z,20.41
2018-09-08T14:10:48.065Z,20.47
2018-09-08T14:13:20.276Z,20.51
2018-09-08T14:15:50.550Z,20.52
2018-09-08T14:18:20.439Z,20.43
2018-09-08T14:20:49.837Z,20.49
2018-09-08T14:23:25.105Z,20.52
2018-09-08T14:25:55.401Z,20.48
2018-09-08T14:28:29.434Z,20.58
2018-09-08T14:31:00.957Z,20.70
2018-09-08T14:33:35.645Z,20.72
2018-09-08T14:36:05.916Z,20.70
2018-09-08T14:38:39.644Z,20.79
2018-09-08T14:41:10.656Z,20.88
2018-09-08T14:43:42.078Z,20.89
2018-09-08T14:46:12.079Z,21.04
2018-09-08T14:48:41.470Z,21.08
2018-09-08T14:51:11.509Z,21.12
2018-09-08T14:53:40.942Z,21.15
2018-09-08T14:56:10.273Z,21.14
2018-09-08T14:58:39.601Z,21.25
2018-09-08T15:01:08.931Z,21.34
2018-09-08T15:03:39.383Z,21.33
2018-09-08T15:06:09.476Z,21.43
2018-09-08T15:08:39.987Z,21.48
2018-09-08T15:11:09.312Z,21.45
2018-09-08T15:13:38.781Z,21.45
2018-09-08T15:16:08.118Z,21.40
2018-09-08T15:18:37.865Z,21.36
2018-09-08T15:21:08.125Z,21.26
2018-09-08T15:23:37.480Z,21.15
2018-09-08T15:26:07.152Z,20.89
2018-09-08T15:28:37.060Z,20.77
2018-09-08T15:31:07.476Z,20.60
2018-09-08T15:33:36.861Z,20.47
2018-09-08T15:36:06.516Z,20.41
2018-09-08T15:38:35.873Z,20.36
2018-09-08T15:41:06.176Z,20.29
2018-09-08T15:43:41.422Z,20.21
2018-09-08T15:46:10.841Z,20.15
2018-09-08T15:48:40.648Z,20.12
2018-09-08T15:51:10.010Z,20.01
2018-09-08T15:53:39.700Z,19.93
2018-09-08T15:56:10.434Z,19.85
2018-09-08T15:58:40.362Z,19.73
2018-09-08T16:01:11.732Z,19.66
2018-09-08T16:03:41.071Z,19.58
2018-09-08T16:06:10.424Z,19.54
2018-09-08T16:08:41.493Z,19.44
2018-09-08T16:11:11.743Z,19.42
2018-09-08T16:13:42.659Z,19.41
2018-09-08T16:16:12.401Z,19.32
2018-09-08T16:18:41.783Z,19.21
2018-09-08T16:21:11.143Z,19.15
2018-09-08T16:23:41.897Z,19.02
2018-09-08T16:26:13.718Z,18.94
2018-09-08T16:28:48.511Z,18.90
2018-09-08T16:31:21.289Z,18.82
2018-09-08T16:33:54.820Z,18.70
2018-09-08T16:36:27.495Z,18.52
2018-09-08T16:38:57.869Z,18.42
2018-09-08T16:41:29.077Z,18.30
2018-09-08T16:44:00.333Z,18.20
2018-09-08T16:46:31.004Z,18.07
2018-09-08T16:49:01.573Z,17.96
2018-09-08T16:51:40.820Z,17.86
2018-09-08T16:54:11.213Z,17.77
2018-09-08T16:56:40.992Z,17.67
2018-09-08T16:59:10.395Z,17.62
2018-09-08T17:01:40.703Z,17.51
2018-09-08T17:04:12.155Z,17.43
2018-09-08T17:06:41.642Z,17.34
2018-09-08T17:09:11.103Z,17.26
2018-09-08T17:11:40.646Z,17.18
2018-09-08T17:14:10.080Z,17.09
2018-09-08T17:16:40.325Z,16.98
2018-09-08T17:19:11.254Z,16.87
2018-09-08T17:21:42.450Z,16.79
2018-09-08T17:24:15.831Z,16.69
2018-09-08T17:26:46.158Z,16.59
2018-09-08T17:29:17.755Z,16.50
2018-09-08T17:31:48.063Z,16.47
2018-09-08T17:34:18.261Z,16.40
2018-09-08T17:36:48.300Z,16.31
2018-09-08T17:39:17.761Z,16.20
2018-09-08T17:41:49.093Z,16.12
2018-09-08T17:44:18.969Z,16.01
2018-09-08T17:46:48.381Z,16.00
2018-09-08T17:49:23.616Z,15.93
2018-09-08T17:51:53.333Z,15.86
2018-09-08T17:54:28.181Z,15.76
2018-09-08T17:56:58.990Z,15.72
2018-09-08T17:59:29.609Z,15.65
2018-09-08T18:01:59.368Z,15.53
2018-09-08T18:04:29.137Z,15.43
2018-09-08T18:07:00.460Z,15.35
2018-09-08T18:09:31.011Z,15.30
2018-09-08T18:12:01.890Z,15.23
2018-09-08T18:14:33.089Z,15.14
2018-09-08T18:17:03.805Z,15.08
2018-09-08T18:19:35.267Z,14.99
2018-09-08T18:22:06.256Z,14.90
2018-09-08T18:24:37.733Z,14.81
2018-09-08T18:27:10.855Z,14.76
2018-09-08T18:29:40.559Z,14.71
2018-09-08T18:32:11.206Z,14.65
2018-09-08T18:34:40.593Z,14.57
2018-09-08T18:37:11.609Z,14.43
2018-09-08T18:39:40.973Z,14.34
2018-09-08T18:42:11.547Z,14.28
2018-09-08T18:44:43.708Z,14.22
2018-09-08T18:47:14.709Z,14.16
2018-09-08T18:49:45.549Z,14.11
2018-09-08T18:52:16.187Z,14.03
2018-09-08T18:54:47.352Z,13.93
2018-09-08T18:57:17.037Z,13.84
2018-09-08T18:59:51.188Z,13.78
2018-09-08T19:02:21.483Z,13.70
2018-09-08T19:04:52.108Z,13.66
2018-09-08T19:07:22.030Z,13.63
2018-09-08T19:09:57.072Z,13.61
2018-09-08T19:12:27.248Z,13.54
2018-09-08T19:15:03.446Z,13.48
2018-09-08T19:17:35.288Z,13.41
2018-09-08T19:20:11.057Z,13.36
2018-09-08T19:22:42.687Z,13.28
2018-09-08T19:25:12.808Z,13.23
2018-09-08T19:27:44.293Z,13.20
2018-09-08T19:30:14.354Z,13.20
2018-09-08T19:32:44.232Z,13.18
2018-09-08T19:35:19.934Z,13.10
2018-09-08T19:37:53.614Z,13.10
2018-09-08T19:40:30.418Z,13.07
2018-09-08T19:43:01.516Z,13.06
2018-09-08T19:45:36.240Z,13.08
2018-09-08T19:48:09.534Z,13.11
2018-09-08T19:50:39.617Z,13.13
2018-09-08T19:53:18.139Z,13.15
2018-09-08T19:55:50.965Z,13.13
2018-09-08T19:58:26.238Z,13.11
2018-09-08T20:00:56.007Z,13.10
2018-09-08T20:07:00.936Z,13.00
2018-09-08T20:09:31.746Z,13.01
2018-09-08T20:12:01.661Z,13.00
2018-09-08T20:14:31.964Z,13.00
2018-09-08T20:17:02.563Z,13.01
2018-09-08T20:19:32.666Z,12.99
2018-09-08T20:22:04.519Z,12.98
2018-09-08T20:24:34.432Z,12.98
2018-09-08T20:27:05.445Z,12.96
2018-09-08T20:29:35.317Z,12.94
2018-09-08T20:32:05.714Z,12.93
2018-09-08T20:34:37.429Z,12.92
2018-09-08T20:37:13.813Z,12.94
2018-09-08T20:39:43.508Z,12.94
2018-09-08T20:42:15.352Z,12.94
2018-09-08T20:44:45.691Z,12.94
2018-09-08T20:47:18.949Z,12.92
2018-09-08T20:49:49.677Z,12.92
2018-09-08T20:52:19.472Z,12.93
2018-09-08T20:54:49.492Z,12.93
2018-09-08T20:57:20.442Z,12.93
2018-09-08T20:59:50.999Z,12.96
2018-09-08T21:02:20.599Z,12.91
2018-09-08T21:04:51.806Z,12.93
2018-09-08T21:07:22.870Z,12.96
2018-09-08T21:09:54.285Z,12.96
2018-09-08T21:12:24.168Z,12.95
2018-09-08T21:14:56.561Z,12.94
2018-09-08T21:17:27.034Z,12.94
2018-09-08T21:19:59.977Z,12.95
2018-09-08T21:22:32.416Z,12.95
2018-09-08T21:25:03.917Z,12.94
2018-09-08T21:27:35.472Z,12.94
2018-09-08T21:30:06.486Z,12.94
2018-09-08T21:32:36.737Z,12.89
2018-09-08T21:35:06.258Z,12.85
2018-09-08T21:37:37.445Z,12.79
2018-09-08T21:40:08.724Z,12.71
2018-09-08T21:42:38.168Z,12.64
2018-09-08T21:45:08.062Z,12.61
2018-09-08T21:47:37.440Z,12.57
2018-09-08T21:50:07.523Z,12.53
2018-09-08T21:52:37.513Z,12.48
2018-09-08T21:55:07.279Z,12.40
2018-09-08T21:57:36.873Z,12.33
2018-09-08T22:00:07.153Z,12.31
2018-09-08T22:02:38.414Z,12.25
2018-09-08T22:05:08.856Z,12.22
2018-09-08T22:07:42.844Z,12.19
2018-09-08T22:10:14.314Z,12.16
2018-09-08T22:12:49.034Z,12.14
2018-09-08T22:15:18.794Z,12.14
2018-09-08T22:17:51.176Z,12.09
2018-09-08T22:20:24.519Z,12.06
2018-09-08T22:25:39.274Z,12.06
2018-09-08T22:28:09.281Z,12.03
2018-09-08T22:30:44.540Z,12.00
2018-09-08T22:33:19.529Z,11.92
2018-09-08T22:35:52.324Z,11.82
2018-09-08T22:38:22.876Z,11.78
2018-09-08T22:40:53.701Z,11.75
2018-09-08T22:43:26.232Z,11.70
2018-09-08T22:45:58.222Z,11.68
2018-09-08T22:48:29.689Z,11.68
2018-09-08T22:51:02.616Z,11.64
2018-09-08T22:53:35.075Z,11.62
2018-09-08T22:56:05.574Z,11.61
2018-09-08T22:58:34.936Z,11.59
2018-09-08T23:01:05.384Z,11.63
2018-09-08T23:03:35.038Z,11.69
2018-09-08T23:06:08.264Z,11.68
2018-09-08T23:08:40.965Z,11.69
2018-09-08T23:11:15.189Z,11.65
2018-09-08T23:13:45.572Z,11.62
2018-09-08T23:16:16.400Z,11.63
2018-09-08T23:18:48.610Z,11.60
2018-09-08T23:21:18.765Z,11.57
2018-09-08T23:23:49.091Z,11.54
2018-09-08T23:26:24.311Z,11.52
2018-09-08T23:28:57.333Z,11.47
2018-09-08T23:31:34.465Z,11.41
2018-09-08T23:34:07.529Z,11.34
2018-09-08T23:36:38.441Z,11.34
2018-09-08T23:39:09.518Z,11.33
2018-09-08T23:41:40.432Z,11.33
2018-09-08T23:44:10.317Z,11.31
2018-09-08T23:46:39.796Z,11.35
2018-09-08T23:49:09.208Z,11.38
2018-09-08T23:51:38.604Z,11.39
2018-09-08T23:54:08.017Z,11.41
2018-09-08T23:56:37.601Z,11.39
2018-09-08T23:59:06.973Z,11.39
